DERIC EDXW-EDDC
Flight info
| Callsign | DERIC |
|---|---|
| Flight time | 0h 47m |
| Altitude | 49000 |
| Route | OLDIP1A OLDIP DCT PIZID DCT EKERN M852 AMLUH L619 PITEN Z998 OSKAN OSKAN4A |
| Aircraft | C750/M-SBDE3FGHRWXY/S |
Departure
| Time | 2026-04-20 15:25 |
|---|---|
| Airport | Westerland Sylt Airport (EDXW) |
Arrival
| Time | 2026-04-20 16:12 |
|---|---|
| Airport | Dresden Airport (EDDC) |
| Time | Latitude | Longitude | Altitude | Speed | Heading |
|---|---|---|---|---|---|
| 2026-04-20 15:04 | 54.92024 | 8.33892 | 44 ft | 0 kts | 86° |
| 2026-04-20 15:21 | 54.92025 | 8.33889 | 44 ft | 3 kts | 67° |
| 2026-04-20 15:21 | 54.92020 | 8.33879 | 44 ft | 3 kts | 61° |
| 2026-04-20 15:21 | 54.92022 | 8.33825 | 43 ft | 11 kts | 106° |
| 2026-04-20 15:21 | 54.92020 | 8.33728 | 42 ft | 0 kts | 37° |
| 2026-04-20 15:22 | 54.92012 | 8.33721 | 41 ft | 3 kts | 14° |
| 2026-04-20 15:22 | 54.91984 | 8.33697 | 39 ft | 4 kts | 323° |
| 2026-04-20 15:22 | 54.91979 | 8.33680 | 38 ft | 6 kts | 252° |
| 2026-04-20 15:22 | 54.91961 | 8.33566 | 36 ft | 10 kts | 264° |
| 2026-04-20 15:23 | 54.91955 | 8.33468 | 36 ft | 0 kts | 264° |
| 2026-04-20 15:23 | 54.91949 | 8.33389 | 38 ft | 12 kts | 254° |
| 2026-04-20 15:23 | 54.91891 | 8.33344 | 39 ft | 7 kts | 159° |
| 2026-04-20 15:24 | 54.91887 | 8.33350 | 39 ft | 0 kts | 140° |
| 2026-04-20 15:24 | 54.91881 | 8.33359 | 39 ft | 15 kts | 143° |
| 2026-04-20 15:24 | 54.91497 | 8.33848 | 48 ft | 112 kts | 133° |
| 2026-04-20 15:24 | 54.90835 | 8.34579 | 533 ft | 117 kts | 137° |
| 2026-04-20 15:25 | 54.90104 | 8.35333 | 1114 ft | 116 kts | 140° |
| 2026-04-20 15:25 | 54.89381 | 8.36041 | 1747 ft | 121 kts | 137° |
| 2026-04-20 15:25 | 54.88678 | 8.36971 | 2217 ft | 137 kts | 132° |
| 2026-04-20 15:25 | 54.87875 | 8.38130 | 2177 ft | 168 kts | 132° |
| 2026-04-20 15:26 | 54.86879 | 8.39537 | 1963 ft | 197 kts | 136° |
| 2026-04-20 15:26 | 54.85763 | 8.40962 | 1912 ft | 208 kts | 138° |
| 2026-04-20 15:26 | 54.84564 | 8.42419 | 2584 ft | 204 kts | 139° |
| 2026-04-20 15:26 | 54.83404 | 8.43829 | 3288 ft | 205 kts | 138° |
| 2026-04-20 15:27 | 54.82238 | 8.45274 | 3941 ft | 207 kts | 138° |
| 2026-04-20 15:27 | 54.81061 | 8.46727 | 4599 ft | 209 kts | 139° |
| 2026-04-20 15:27 | 54.79875 | 8.48188 | 5261 ft | 210 kts | 139° |
| 2026-04-20 15:27 | 54.78679 | 8.49660 | 5927 ft | 211 kts | 139° |
| 2026-04-20 15:28 | 54.77480 | 8.51135 | 6619 ft | 212 kts | 139° |
| 2026-04-20 15:28 | 54.76274 | 8.52616 | 7287 ft | 213 kts | 139° |
| 2026-04-20 15:28 | 54.75058 | 8.54111 | 7968 ft | 215 kts | 139° |
| 2026-04-20 15:28 | 54.73815 | 8.55640 | 8472 ft | 228 kts | 140° |
| 2026-04-20 15:29 | 54.72440 | 8.57338 | 8665 ft | 259 kts | 140° |
| 2026-04-20 15:29 | 54.70949 | 8.59153 | 9576 ft | 262 kts | 141° |
| 2026-04-20 15:29 | 54.69453 | 8.60972 | 10480 ft | 265 kts | 141° |
| 2026-04-20 15:29 | 54.67933 | 8.62835 | 11217 ft | 270 kts | 141° |
| 2026-04-20 15:30 | 54.66385 | 8.64729 | 11926 ft | 275 kts | 140° |
| 2026-04-20 15:30 | 54.64811 | 8.66649 | 12680 ft | 280 kts | 141° |
| 2026-04-20 15:30 | 54.63220 | 8.68623 | 13380 ft | 283 kts | 139° |
| 2026-04-20 15:30 | 54.61959 | 8.71241 | 13801 ft | 292 kts | 117° |
| 2026-04-20 15:31 | 54.61324 | 8.74687 | 13773 ft | 313 kts | 99° |
| 2026-04-20 15:31 | 54.60530 | 8.78285 | 13952 ft | 332 kts | 121° |
| 2026-04-20 15:31 | 54.58947 | 8.81205 | 14557 ft | 338 kts | 136° |
| 2026-04-20 15:31 | 54.57064 | 8.83677 | 15062 ft | 343 kts | 140° |
| 2026-04-20 15:32 | 54.55147 | 8.86123 | 15650 ft | 344 kts | 138° |
| 2026-04-20 15:32 | 54.53257 | 8.88697 | 16138 ft | 349 kts | 138° |
| 2026-04-20 15:32 | 54.51355 | 8.91326 | 16724 ft | 352 kts | 138° |
| 2026-04-20 15:32 | 54.49414 | 8.93926 | 17270 ft | 357 kts | 139° |
| 2026-04-20 15:33 | 54.47437 | 8.96545 | 17839 ft | 361 kts | 139° |
| 2026-04-20 15:33 | 54.45447 | 8.99212 | 18437 ft | 364 kts | 138° |
| 2026-04-20 15:33 | 54.43450 | 9.01900 | 19001 ft | 366 kts | 137° |
| 2026-04-20 15:33 | 54.41432 | 9.04602 | 19488 ft | 371 kts | 139° |
| 2026-04-20 15:34 | 54.39374 | 9.07342 | 19940 ft | 377 kts | 138° |
| 2026-04-20 15:34 | 54.37324 | 9.10070 | 20495 ft | 379 kts | 138° |
| 2026-04-20 15:34 | 54.35206 | 9.12894 | 21074 ft | 382 kts | 138° |
| 2026-04-20 15:34 | 54.33100 | 9.15697 | 21583 ft | 386 kts | 138° |
| 2026-04-20 15:35 | 54.30969 | 9.18527 | 22095 ft | 389 kts | 138° |
| 2026-04-20 15:35 | 54.28819 | 9.21376 | 22581 ft | 393 kts | 138° |
| 2026-04-20 15:35 | 54.26646 | 9.24253 | 23081 ft | 397 kts | 138° |
| 2026-04-20 15:35 | 54.25194 | 9.26175 | 23415 ft | 399 kts | 138° |
| 2026-04-20 15:36 | 54.22991 | 9.29086 | 23907 ft | 402 kts | 138° |
| 2026-04-20 15:36 | 54.20766 | 9.32021 | 24355 ft | 405 kts | 139° |
| 2026-04-20 15:36 | 54.18530 | 9.34966 | 24809 ft | 407 kts | 139° |
| 2026-04-20 15:36 | 54.16283 | 9.37922 | 25274 ft | 409 kts | 139° |
| 2026-04-20 15:37 | 54.14022 | 9.40892 | 25738 ft | 411 kts | 139° |
| 2026-04-20 15:37 | 54.11751 | 9.43873 | 26171 ft | 415 kts | 139° |
| 2026-04-20 15:37 | 54.09458 | 9.46878 | 26592 ft | 417 kts | 139° |
| 2026-04-20 15:37 | 54.07147 | 9.49899 | 27060 ft | 419 kts | 140° |
| 2026-04-20 15:38 | 54.04829 | 9.52929 | 27508 ft | 422 kts | 140° |
| 2026-04-20 15:38 | 54.02504 | 9.55960 | 28120 ft | 420 kts | 139° |
| 2026-04-20 15:38 | 54.00176 | 9.58992 | 28564 ft | 423 kts | 139° |
| 2026-04-20 15:38 | 53.97832 | 9.62045 | 29029 ft | 426 kts | 139° |
| 2026-04-20 15:39 | 53.95475 | 9.65104 | 29471 ft | 428 kts | 139° |
| 2026-04-20 15:39 | 53.93105 | 9.68177 | 29933 ft | 430 kts | 139° |
| 2026-04-20 15:39 | 53.90719 | 9.71268 | 30279 ft | 434 kts | 140° |
| 2026-04-20 15:39 | 53.88309 | 9.74384 | 30621 ft | 437 kts | 139° |
| 2026-04-20 15:40 | 53.85885 | 9.77513 | 30968 ft | 439 kts | 139° |
| 2026-04-20 15:40 | 53.83448 | 9.80655 | 31207 ft | 445 kts | 139° |
| 2026-04-20 15:40 | 53.80966 | 9.83852 | 31452 ft | 449 kts | 140° |
| 2026-04-20 15:40 | 53.78469 | 9.87060 | 31760 ft | 453 kts | 140° |
| 2026-04-20 15:41 | 53.75946 | 9.90297 | 32070 ft | 456 kts | 141° |
| 2026-04-20 15:41 | 53.73444 | 9.93503 | 32390 ft | 459 kts | 141° |
| 2026-04-20 15:41 | 53.70856 | 9.96814 | 32753 ft | 462 kts | 140° |
| 2026-04-20 15:41 | 53.68286 | 10.00097 | 33043 ft | 465 kts | 140° |
| 2026-04-20 15:42 | 53.65729 | 10.03360 | 33336 ft | 469 kts | 140° |
| 2026-04-20 15:42 | 53.63085 | 10.06725 | 33611 ft | 472 kts | 140° |
| 2026-04-20 15:42 | 53.60486 | 10.10026 | 33893 ft | 475 kts | 140° |
| 2026-04-20 15:42 | 53.57805 | 10.13431 | 34172 ft | 479 kts | 140° |
| 2026-04-20 15:43 | 53.55168 | 10.16776 | 34350 ft | 483 kts | 141° |
| 2026-04-20 15:43 | 53.52467 | 10.20194 | 34490 ft | 488 kts | 142° |
| 2026-04-20 15:43 | 53.49751 | 10.23620 | 34749 ft | 490 kts | 142° |
| 2026-04-20 15:43 | 53.47009 | 10.27076 | 34934 ft | 494 kts | 141° |
| 2026-04-20 15:44 | 53.44361 | 10.30747 | 35199 ft | 494 kts | 135° |
| 2026-04-20 15:44 | 53.42062 | 10.35023 | 35356 ft | 496 kts | 126° |
| 2026-04-20 15:44 | 53.40182 | 10.39861 | 35652 ft | 495 kts | 118° |
| 2026-04-20 15:44 | 53.38615 | 10.45006 | 35841 ft | 497 kts | 113° |
| 2026-04-20 15:45 | 53.37176 | 10.50289 | 36045 ft | 500 kts | 112° |
| 2026-04-20 15:45 | 53.35675 | 10.55562 | 36225 ft | 504 kts | 116° |
| 2026-04-20 15:45 | 53.33960 | 10.60692 | 36429 ft | 506 kts | 119° |
| 2026-04-20 15:45 | 53.32195 | 10.65804 | 36590 ft | 509 kts | 117° |
| 2026-04-20 15:46 | 53.30545 | 10.71054 | 36717 ft | 511 kts | 115° |
| 2026-04-20 15:46 | 53.28948 | 10.76361 | 36842 ft | 512 kts | 115° |
| 2026-04-20 15:46 | 53.27262 | 10.81625 | 36995 ft | 514 kts | 117° |
| 2026-04-20 15:47 | 53.23805 | 10.92118 | 37145 ft | 518 kts | 117° |
| 2026-04-20 15:47 | 53.20492 | 11.02576 | 37343 ft | 521 kts | 117° |
| 2026-04-20 15:48 | 53.16923 | 11.13453 | 37453 ft | 526 kts | 117° |
| 2026-04-20 15:48 | 53.15217 | 11.18740 | 37617 ft | 526 kts | 117° |
| 2026-04-20 15:48 | 53.13461 | 11.24174 | 37698 ft | 527 kts | 116° |
| 2026-04-20 15:49 | 53.09959 | 11.34828 | 37899 ft | 529 kts | 116° |
| 2026-04-20 15:49 | 53.06450 | 11.45542 | 37961 ft | 526 kts | 117° |
| 2026-04-20 15:50 | 53.03150 | 11.56385 | 38080 ft | 524 kts | 109° |
| 2026-04-20 15:50 | 53.01197 | 11.68035 | 38092 ft | 526 kts | 101° |
| 2026-04-20 15:51 | 52.99066 | 11.79766 | 38087 ft | 538 kts | 111° |
| 2026-04-20 15:51 | 52.95151 | 11.90447 | 38082 ft | 548 kts | 126° |
| 2026-04-20 15:52 | 52.90262 | 12.00177 | 38096 ft | 548 kts | 129° |
| 2026-04-20 15:52 | 52.85665 | 12.10179 | 38079 ft | 544 kts | 123° |
| 2026-04-20 15:53 | 52.78773 | 12.25050 | 38082 ft | 543 kts | 127° |
| 2026-04-20 15:53 | 52.74256 | 12.35033 | 38070 ft | 543 kts | 125° |
| 2026-04-20 15:54 | 52.69160 | 12.44245 | 38048 ft | 546 kts | 139° |
| 2026-04-20 15:54 | 52.62788 | 12.51091 | 38052 ft | 548 kts | 150° |
| 2026-04-20 15:55 | 52.56057 | 12.57013 | 38059 ft | 548 kts | 149° |
| 2026-04-20 15:55 | 52.49619 | 12.63714 | 38060 ft | 548 kts | 147° |
| 2026-04-20 15:56 | 52.43008 | 12.69977 | 38053 ft | 548 kts | 150° |
| 2026-04-20 15:56 | 52.36486 | 12.76443 | 38052 ft | 548 kts | 147° |
| 2026-04-20 15:57 | 52.29923 | 12.82776 | 38041 ft | 548 kts | 149° |
| 2026-04-20 15:57 | 52.23364 | 12.89134 | 38040 ft | 548 kts | 148° |
| 2026-04-20 15:58 | 52.16813 | 12.95526 | 38045 ft | 549 kts | 149° |
| 2026-04-20 15:58 | 52.10292 | 13.01814 | 38037 ft | 549 kts | 148° |
| 2026-04-20 15:59 | 52.03730 | 13.08169 | 38041 ft | 549 kts | 149° |
| 2026-04-20 15:59 | 51.97159 | 13.14471 | 38042 ft | 549 kts | 149° |
| 2026-04-20 16:00 | 51.90579 | 13.20791 | 38042 ft | 550 kts | 149° |
| 2026-04-20 16:00 | 51.83981 | 13.27082 | 38046 ft | 551 kts | 149° |
| 2026-04-20 16:01 | 51.77394 | 13.33387 | 38045 ft | 550 kts | 147° |
| 2026-04-20 16:01 | 51.71841 | 13.39503 | 28349 ft | 438 kts | 144° |
| 2026-04-20 16:02 | 51.69222 | 13.43502 | 16712 ft | 572 kts | 128° |
| 2026-04-20 16:02 | 51.66790 | 13.48843 | 10879 ft | 595 kts | 121° |
| 2026-04-20 16:02 | 51.64807 | 13.53744 | 11394 ft | 469 kts | 120° |
| 2026-04-20 16:02 | 51.63327 | 13.57866 | 11690 ft | 388 kts | 115° |
| 2026-04-20 16:03 | 51.62134 | 13.61441 | 11536 ft | 339 kts | 114° |
| 2026-04-20 16:03 | 51.61000 | 13.64531 | 11650 ft | 317 kts | 124° |
| 2026-04-20 16:03 | 51.59292 | 13.66933 | 11731 ft | 335 kts | 143° |
| 2026-04-20 16:03 | 51.57169 | 13.68578 | 11864 ft | 342 kts | 152° |
| 2026-04-20 16:04 | 51.55060 | 13.70045 | 11389 ft | 307 kts | 152° |
| 2026-04-20 16:04 | 51.53265 | 13.71290 | 9271 ft | 265 kts | 151° |
| 2026-04-20 16:04 | 51.51388 | 13.72691 | 6667 ft | 327 kts | 150° |
| 2026-04-20 16:04 | 51.49330 | 13.74183 | 5808 ft | 310 kts | 152° |
| 2026-04-20 16:05 | 51.47456 | 13.75465 | 5812 ft | 287 kts | 152° |
| 2026-04-20 16:05 | 51.45593 | 13.76801 | 5828 ft | 286 kts | 153° |
| 2026-04-20 16:05 | 51.43836 | 13.78067 | 5596 ft | 273 kts | 153° |
| 2026-04-20 16:05 | 51.42100 | 13.79306 | 5160 ft | 275 kts | 153° |
| 2026-04-20 16:06 | 51.40356 | 13.80543 | 4606 ft | 273 kts | 153° |
| 2026-04-20 16:06 | 51.38630 | 13.81766 | 4046 ft | 270 kts | 153° |
| 2026-04-20 16:06 | 51.36924 | 13.82977 | 3503 ft | 267 kts | 154° |
| 2026-04-20 16:06 | 51.35231 | 13.84179 | 3014 ft | 263 kts | 154° |
| 2026-04-20 16:07 | 51.33594 | 13.85336 | 3004 ft | 256 kts | 154° |
| 2026-04-20 16:07 | 51.31943 | 13.86507 | 3007 ft | 261 kts | 154° |
| 2026-04-20 16:07 | 51.30279 | 13.87685 | 3016 ft | 263 kts | 154° |
| 2026-04-20 16:07 | 51.28620 | 13.88857 | 3023 ft | 265 kts | 154° |
| 2026-04-20 16:08 | 51.26935 | 13.90047 | 3021 ft | 265 kts | 154° |
| 2026-04-20 16:08 | 51.25211 | 13.91094 | 2987 ft | 268 kts | 165° |
| 2026-04-20 16:08 | 51.23378 | 13.90802 | 2933 ft | 269 kts | 202° |
| 2026-04-20 16:08 | 51.22015 | 13.88980 | 2921 ft | 245 kts | 232° |
| 2026-04-20 16:09 | 51.20895 | 13.87052 | 2555 ft | 221 kts | 226° |
| 2026-04-20 16:09 | 51.19816 | 13.85618 | 2258 ft | 186 kts | 224° |
| 2026-04-20 16:09 | 51.18843 | 13.84278 | 1980 ft | 189 kts | 226° |
| 2026-04-20 16:09 | 51.17896 | 13.82950 | 1725 ft | 168 kts | 225° |
| 2026-04-20 16:10 | 51.17087 | 13.81849 | 1474 ft | 136 kts | 224° |
| 2026-04-20 16:10 | 51.16431 | 13.80936 | 1260 ft | 119 kts | 223° |
| 2026-04-20 16:10 | 51.15803 | 13.80133 | 1064 ft | 114 kts | 223° |
| 2026-04-20 16:10 | 51.15210 | 13.79300 | 922 ft | 113 kts | 225° |
| 2026-04-20 16:11 | 51.14628 | 13.78466 | 825 ft | 111 kts | 224° |
| 2026-04-20 16:11 | 51.14053 | 13.77665 | 733 ft | 111 kts | 225° |
| 2026-04-20 16:11 | 51.13513 | 13.76912 | 735 ft | 91 kts | 222° |
| 2026-04-20 16:11 | 51.13111 | 13.76353 | 747 ft | 69 kts | 220° |
| 2026-04-20 16:12 | 51.12823 | 13.75963 | 758 ft | 38 kts | 221° |
| 2026-04-20 16:12 | 51.12706 | 13.75830 | 759 ft | 12 kts | 179° |
| 2026-04-20 16:12 | 51.12651 | 13.75925 | 757 ft | 11 kts | 130° |
| 2026-04-20 16:12 | 51.12600 | 13.76017 | 756 ft | 12 kts | 131° |
| 2026-04-20 16:13 | 51.12528 | 13.76033 | 756 ft | 14 kts | 221° |
| 2026-04-20 16:13 | 51.12471 | 13.75960 | 757 ft | 2 kts | 182° |
| 2026-04-20 16:13 | 51.12442 | 13.76008 | 758 ft | 6 kts | 129° |
| 2026-04-20 16:13 | 51.12442 | 13.76009 | 756 ft | 0 kts | 129° |